createdAt,value
2023-05-24T00:01:57.111Z,102864.66
2023-05-24T00:04:26.153Z,102860.47
2023-05-24T00:06:55.153Z,102868.03
2023-05-24T00:09:23.620Z,102863.69
2023-05-24T00:11:53.278Z,102870.97
2023-05-24T00:14:21.529Z,102869.72
2023-05-24T00:16:49.746Z,102879.34
2023-05-24T00:19:18.566Z,102872.38
2023-05-24T00:21:48.001Z,102870.03
2023-05-24T00:24:17.353Z,102871.41
2023-05-24T00:26:45.906Z,102869.75
2023-05-24T00:29:15.759Z,102869.59
2023-05-24T00:31:43.935Z,102866.69
2023-05-24T00:34:12.386Z,102865.00
2023-05-24T00:36:40.697Z,102855.47
2023-05-24T00:39:08.922Z,102858.03
2023-05-24T00:41:37.061Z,102863.63
2023-05-24T00:44:05.184Z,102857.47
2023-05-24T00:46:35.854Z,102859.16
2023-05-24T00:49:05.224Z,102863.63
2023-05-24T00:51:34.134Z,102857.31
2023-05-24T00:54:02.398Z,102859.13
2023-05-24T00:56:31.380Z,102856.63
2023-05-24T00:59:00.101Z,102854.41
2023-05-24T01:01:31.409Z,102851.75
2023-05-24T01:04:00.988Z,102854.50
2023-05-24T01:06:30.512Z,102855.91
2023-05-24T01:09:15.149Z,102854.94
2023-05-24T01:12:12.218Z,102853.41
2023-05-24T01:14:54.785Z,102847.13
2023-05-24T01:17:27.883Z,102848.94
2023-05-24T01:20:02.430Z,102844.63
2023-05-24T01:22:49.026Z,102843.91
2023-05-24T01:25:30.355Z,102838.63
2023-05-24T01:28:01.211Z,102846.16
2023-05-24T01:30:30.101Z,102845.47
2023-05-24T01:32:58.759Z,102847.56
2023-05-24T01:35:27.004Z,102853.69
2023-05-24T01:37:55.156Z,102846.16
2023-05-24T01:40:23.539Z,102844.63
2023-05-24T01:43:04.360Z,102844.63
2023-05-24T01:45:38.126Z,102844.75
2023-05-24T01:48:19.053Z,102849.38
2023-05-24T01:50:51.244Z,102841.41
2023-05-24T01:53:21.414Z,102837.38
2023-05-24T01:55:51.135Z,102835.84
2023-05-24T01:58:24.054Z,102842.81
2023-05-24T02:00:53.258Z,102846.16
2023-05-24T02:03:22.451Z,102847.69
2023-05-24T02:05:50.661Z,102847.69
2023-05-24T02:08:19.123Z,102852.28
2023-05-24T02:10:47.297Z,102852.84
2023-05-24T02:13:16.379Z,102849.94
2023-05-24T02:15:47.947Z,102854.41
2023-05-24T02:18:18.714Z,102849.50
2023-05-24T02:20:47.199Z,102847.69
2023-05-24T02:23:15.602Z,102845.16
2023-05-24T02:25:44.033Z,102845.31
2023-05-24T02:28:12.191Z,102842.66
2023-05-24T02:30:40.809Z,102853.25
2023-05-24T02:33:10.646Z,102849.94
2023-05-24T02:35:39.254Z,102846.81
2023-05-24T02:38:07.417Z,102848.53
2023-05-24T02:40:35.897Z,102848.78
2023-05-24T02:43:04.032Z,102841.09
2023-05-24T02:45:32.283Z,102842.91
2023-05-24T02:48:00.529Z,102836.22
2023-05-24T02:50:30.099Z,102839.84
2023-05-24T02:52:58.284Z,102842.78
2023-05-24T02:55:27.023Z,102842.91
2023-05-24T02:57:55.195Z,102844.88
2023-05-24T03:00:23.601Z,102843.88
2023-05-24T03:02:52.703Z,102845.13
2023-05-24T03:05:21.364Z,102833.13
2023-05-24T03:07:50.933Z,102839.84
2023-05-24T03:10:19.267Z,102832.28
2023-05-24T03:12:47.500Z,102833.41
2023-05-24T03:15:15.652Z,102831.59
2023-05-24T03:17:43.862Z,102835.34
2023-05-24T03:20:13.253Z,102832.00
2023-05-24T03:22:41.489Z,102842.03
2023-05-24T03:25:11.583Z,102842.72
2023-05-24T03:27:39.858Z,102849.00
2023-05-24T03:30:09.488Z,102842.19
2023-05-24T03:32:37.680Z,102834.50
2023-05-24T03:35:06.576Z,102841.03
2023-05-24T03:37:34.734Z,102836.44
2023-05-24T03:40:04.620Z,102841.88
2023-05-24T03:42:34.134Z,102834.22
2023-05-24T03:45:02.329Z,102839.50
2023-05-24T03:47:30.625Z,102846.47
2023-05-24T03:49:58.915Z,102850.78
2023-05-24T03:52:27.420Z,102858.88
2023-05-24T03:54:55.640Z,102851.47
2023-05-24T03:57:23.893Z,102855.25
2023-05-24T03:59:53.429Z,102856.47
2023-05-24T04:02:21.697Z,102861.09
2023-05-24T04:04:49.902Z,102860.38
2023-05-24T04:07:18.301Z,102852.56
2023-05-24T04:09:46.493Z,102850.59
2023-05-24T04:12:14.730Z,102852.56
2023-05-24T04:14:42.872Z,102846.69
2023-05-24T04:17:12.654Z,102859.25
2023-05-24T04:19:40.904Z,102849.47
2023-05-24T04:22:09.248Z,102852.97
2023-05-24T04:24:37.521Z,102862.31
2023-05-24T04:27:05.907Z,102859.09
2023-05-24T04:29:34.120Z,102860.06
2023-05-24T04:32:02.421Z,102863.91
2023-05-24T04:34:33.978Z,102858.50
2023-05-24T04:37:02.195Z,102867.41
2023-05-24T04:39:31.522Z,102872.19
2023-05-24T04:42:00.726Z,102877.91
2023-05-24T04:44:28.930Z,102872.50
2023-05-24T04:46:58.024Z,102874.91
2023-05-24T04:49:26.380Z,102871.63
2023-05-24T04:51:56.040Z,102874.72
2023-05-24T04:54:24.392Z,102876.56
2023-05-24T04:56:52.759Z,102874.78
2023-05-24T04:59:20.948Z,102880.06
2023-05-24T05:01:49.119Z,102878.13
2023-05-24T05:04:17.565Z,102884.28
2023-05-24T05:06:45.876Z,102880.50
2023-05-24T05:09:16.078Z,102884.28
2023-05-24T05:11:44.462Z,102885.22
2023-05-24T05:14:12.606Z,102885.25
2023-05-24T05:16:41.406Z,102885.50
2023-05-24T05:19:09.617Z,102883.84
2023-05-24T05:21:39.804Z,102887.47
2023-05-24T05:24:07.948Z,102890.22
2023-05-24T05:26:38.701Z,102889.53
2023-05-24T05:29:06.857Z,102891.63
2023-05-24T05:31:35.159Z,102893.47
2023-05-24T05:34:03.283Z,102896.00
2023-05-24T05:36:32.529Z,102892.63
2023-05-24T05:39:00.745Z,102889.97
2023-05-24T05:41:28.840Z,102891.53
2023-05-24T05:43:58.471Z,102890.38
2023-05-24T05:46:26.713Z,102893.75
2023-05-24T05:48:54.955Z,102896.81
2023-05-24T05:51:23.121Z,102901.72
2023-05-24T05:53:51.678Z,102903.13
2023-05-24T05:56:19.902Z,102906.72
2023-05-24T05:58:48.120Z,102905.63
2023-05-24T06:01:18.020Z,102913.03
2023-05-24T06:03:46.410Z,102910.53
2023-05-24T06:06:14.706Z,102904.38
2023-05-24T06:08:42.852Z,102902.47
2023-05-24T06:11:11.234Z,102901.88
2023-05-24T06:13:39.364Z,102909.41
2023-05-24T06:16:08.667Z,102903.63
2023-05-24T06:18:38.686Z,102894.09
2023-05-24T06:21:06.869Z,102905.38
2023-05-24T06:23:34.956Z,102913.16
2023-05-24T06:26:03.343Z,102912.53
2023-05-24T06:28:31.666Z,102913.00
2023-05-24T06:30:59.858Z,102917.00
2023-05-24T06:33:28.418Z,102908.59
2023-05-24T06:35:57.922Z,102909.47
2023-05-24T06:38:27.727Z,102917.84
2023-05-24T06:40:55.917Z,102918.78
2023-05-24T06:43:24.120Z,102921.66
2023-05-24T06:45:52.228Z,102934.47
2023-05-24T06:48:20.442Z,102936.44
2023-05-24T06:50:48.715Z,102935.84
2023-05-24T06:53:18.235Z,102938.56
2023-05-24T06:55:46.424Z,102941.06
2023-05-24T06:58:14.639Z,102941.41
2023-05-24T07:00:43.695Z,102937.88
2023-05-24T07:03:14.221Z,102941.00
2023-05-24T07:05:42.628Z,102942.75
2023-05-24T07:08:10.897Z,102942.88
2023-05-24T07:10:40.854Z,102948.19
2023-05-24T07:13:09.573Z,102942.63
2023-05-24T07:15:37.688Z,102954.28
2023-05-24T07:18:06.233Z,102961.22
2023-05-24T07:20:34.593Z,102960.13
2023-05-24T07:23:03.914Z,102954.91
2023-05-24T07:25:32.889Z,102961.19
2023-05-24T07:28:02.878Z,102967.84
2023-05-24T07:30:32.144Z,102960.03
2023-05-24T07:33:01.935Z,102963.19
2023-05-24T07:35:31.187Z,102957.16
2023-05-24T07:37:59.536Z,102961.47
2023-05-24T07:40:27.654Z,102964.25
2023-05-24T07:42:56.319Z,102962.56
2023-05-24T07:45:26.178Z,102970.34
2023-05-24T07:47:56.586Z,102972.31
2023-05-24T07:50:25.308Z,102976.06
2023-05-24T07:52:53.473Z,102984.72
2023-05-24T07:55:21.750Z,102992.66
2023-05-24T07:57:49.941Z,102988.31
2023-05-24T08:00:20.338Z,102982.53
2023-05-24T08:02:50.456Z,102988.16
2023-05-24T08:05:19.095Z,102989.44
2023-05-24T08:07:47.232Z,102978.44
2023-05-24T08:10:15.450Z,102989.56
2023-05-24T08:12:43.766Z,102985.47
2023-05-24T08:15:12.483Z,102990.78
2023-05-24T08:17:40.759Z,102982.81
2023-05-24T08:20:14.061Z,102989.31
2023-05-24T08:22:42.657Z,102980.78
2023-05-24T08:25:12.074Z,102988.88
2023-05-24T08:27:41.039Z,102984.09
2023-05-24T08:30:11.266Z,102991.91
2023-05-24T08:32:39.628Z,102988.13
2023-05-24T08:35:20.383Z,102991.50
2023-05-24T08:37:51.384Z,102991.19
2023-05-24T08:40:19.931Z,102999.88
2023-05-24T08:42:49.165Z,102993.91
2023-05-24T08:45:18.111Z,103002.06
2023-05-24T08:47:48.143Z,102999.25
2023-05-24T08:50:16.801Z,103004.56
2023-05-24T08:52:47.193Z,103002.25
2023-05-24T08:55:17.296Z,102993.19
2023-05-24T08:57:47.421Z,102990.00
2023-05-24T09:00:16.829Z,102991.72
2023-05-24T09:02:46.651Z,102993.97
2023-05-24T09:05:17.418Z,102991.97
2023-05-24T09:07:47.098Z,102983.41
2023-05-24T09:10:17.137Z,102996.72
2023-05-24T09:12:49.838Z,102996.22
2023-05-24T09:15:18.069Z,102997.84
2023-05-24T09:17:46.572Z,102991.69
2023-05-24T09:20:15.056Z,102996.19
2023-05-24T09:22:44.339Z,102987.03
2023-05-24T09:25:15.330Z,102986.22
2023-05-24T09:27:51.662Z,102985.81
2023-05-24T09:30:20.524Z,102980.88
2023-05-24T09:32:59.434Z,102984.03
2023-05-24T09:35:28.602Z,102985.88
2023-05-24T09:37:57.757Z,102987.03
2023-05-24T09:40:26.362Z,102982.09
2023-05-24T09:43:10.093Z,102987.22
2023-05-24T09:45:44.509Z,102981.38
2023-05-24T09:48:13.760Z,102985.41
2023-05-24T09:50:42.389Z,102977.88
2023-05-24T09:53:10.920Z,102979.09
2023-05-24T09:55:39.721Z,102972.09
2023-05-24T09:58:13.013Z,102977.66
2023-05-24T10:00:42.914Z,102970.47
2023-05-24T10:03:13.313Z,102972.81
2023-05-24T10:05:44.710Z,102974.81
2023-05-24T10:08:14.678Z,102969.13
2023-05-24T10:10:44.914Z,102978.47
2023-05-24T10:13:16.108Z,102980.16
2023-05-24T10:15:45.345Z,102982.84
2023-05-24T10:18:14.260Z,102972.31
2023-05-24T10:20:43.232Z,102965.28
2023-05-24T10:23:16.274Z,102963.81
2023-05-24T10:25:53.971Z,102964.50
2023-05-24T10:28:25.075Z,102967.16
2023-05-24T10:31:03.575Z,102970.31
2023-05-24T10:33:36.120Z,102967.31
2023-05-24T10:36:08.001Z,102964.13
2023-05-24T10:38:40.953Z,102966.81
2023-05-24T10:41:09.810Z,102963.16
2023-05-24T10:43:39.932Z,102965.97
2023-05-24T10:46:10.886Z,102971.28
2023-05-24T10:48:40.888Z,102973.13
2023-05-24T10:51:38.812Z,102966.28
2023-05-24T10:54:18.289Z,102967.94
2023-05-24T10:56:48.361Z,102969.13
2023-05-24T10:59:44.405Z,102970.13
2023-05-24T11:02:14.708Z,102969.09
2023-05-24T11:04:44.570Z,102969.09
2023-05-24T11:07:15.447Z,102975.91
2023-05-24T11:09:47.271Z,102971.41
2023-05-24T11:12:17.865Z,102969.78
2023-05-24T11:14:51.449Z,102964.28
2023-05-24T11:17:22.467Z,102965.44
2023-05-24T11:19:51.674Z,102982.13
2023-05-24T11:22:22.026Z,102971.81
2023-05-24T11:24:50.570Z,102977.47
2023-05-24T11:27:18.716Z,102969.47
2023-05-24T11:29:48.424Z,102971.09
2023-05-24T11:32:19.401Z,102957.97
2023-05-24T11:34:48.212Z,102955.84
2023-05-24T11:37:18.389Z,102953.19
2023-05-24T11:39:51.713Z,102957.81
2023-05-24T11:42:19.927Z,102959.91
2023-05-24T11:44:49.841Z,102961.16
2023-05-24T11:47:22.163Z,102957.06
2023-05-24T11:49:52.030Z,102969.16
2023-05-24T11:52:20.262Z,102961.09
2023-05-24T11:54:49.155Z,102963.53
2023-05-24T11:57:19.978Z,102969.25
2023-05-24T11:59:48.166Z,102961.44
2023-05-24T12:02:16.421Z,102966.19
2023-05-24T12:04:46.971Z,102966.81
2023-05-24T12:07:16.439Z,102962.66
2023-05-24T12:09:44.697Z,102961.16
2023-05-24T12:12:12.893Z,102963.00
2023-05-24T12:14:41.279Z,102956.88
2023-05-24T12:17:17.316Z,102956.81
2023-05-24T12:19:51.541Z,102952.13
2023-05-24T12:22:19.845Z,102950.03
2023-05-24T12:24:52.327Z,102948.50
2023-05-24T12:27:21.196Z,102952.38
2023-05-24T12:29:49.397Z,102958.59
2023-05-24T12:32:19.056Z,102946.88
2023-05-24T12:34:50.951Z,102940.69
2023-05-24T12:37:19.771Z,102934.47
2023-05-24T12:39:47.983Z,102943.16
2023-05-24T12:42:16.230Z,102930.41
2023-05-24T12:44:45.294Z,102936.72
2023-05-24T12:47:13.645Z,102941.59
2023-05-24T12:49:41.843Z,102928.38
2023-05-24T12:52:12.741Z,102942.22
2023-05-24T12:54:41.087Z,102940.84
2023-05-24T12:57:09.249Z,102924.63
2023-05-24T12:59:37.459Z,102932.00
2023-05-24T13:02:05.779Z,102939.38
2023-05-24T13:04:36.167Z,102941.25
2023-05-24T13:07:04.630Z,102946.31
2023-05-24T13:09:34.421Z,102942.06
2023-05-24T13:12:03.117Z,102945.22
2023-05-24T13:14:31.390Z,102934.56
2023-05-24T13:16:59.717Z,102936.91
2023-05-24T13:19:27.973Z,102934.50
2023-05-24T13:21:56.175Z,102932.09
2023-05-24T13:24:24.669Z,102938.75
2023-05-24T13:26:54.998Z,102940.69
2023-05-24T13:31:55.008Z,102941.13
2023-05-24T13:34:24.849Z,102939.53
2023-05-24T13:36:53.367Z,102944.34
2023-05-24T13:39:22.505Z,102944.91
2023-05-24T13:41:51.078Z,102946.56
2023-05-24T13:44:21.519Z,102952.38
2023-05-24T13:46:49.723Z,102945.28
2023-05-24T13:49:18.001Z,102949.28
2023-05-24T13:51:47.189Z,102950.19
2023-05-24T13:54:15.371Z,102950.78
2023-05-24T13:56:45.078Z,102963.97
2023-05-24T13:59:13.351Z,102963.03
2023-05-24T14:01:43.707Z,102949.06
2023-05-24T14:04:11.907Z,102953.34
2023-05-24T14:06:40.085Z,102952.25
2023-05-24T14:09:08.550Z,102954.63
2023-05-24T14:11:37.718Z,102952.19
2023-05-24T14:16:37.343Z,102948.38
2023-05-24T14:19:07.188Z,102948.91
2023-05-24T14:21:35.359Z,102952.94
2023-05-24T14:24:04.490Z,102946.44
2023-05-24T14:26:32.593Z,102957.50
2023-05-24T14:29:00.809Z,102946.13
2023-05-24T14:31:28.960Z,102954.03
2023-05-24T14:33:57.168Z,102949.41
2023-05-24T14:36:26.763Z,102952.91
2023-05-24T14:38:54.896Z,102948.94
2023-05-24T14:41:23.764Z,102956.13
2023-05-24T14:43:52.399Z,102957.94
2023-05-24T14:46:20.617Z,102961.44
2023-05-24T14:48:48.843Z,102968.66
2023-05-24T14:51:17.004Z,102969.16
2023-05-24T14:53:46.555Z,102962.63
2023-05-24T14:56:15.044Z,102982.19
2023-05-24T14:58:43.476Z,102972.16
2023-05-24T15:01:11.754Z,102973.16
2023-05-24T15:03:40.185Z,102972.97
2023-05-24T15:06:08.649Z,102969.81
2023-05-24T15:08:36.875Z,102970.47
2023-05-24T15:11:07.488Z,102976.66
2023-05-24T15:13:35.736Z,102976.66
2023-05-24T15:16:03.972Z,102969.66
2023-05-24T15:18:32.963Z,102970.63
2023-05-24T15:21:01.214Z,102967.28
2023-05-24T15:23:29.626Z,102964.56
2023-05-24T15:25:58.166Z,102969.88
2023-05-24T15:28:27.678Z,102970.00
2023-05-24T15:30:57.088Z,102972.03
2023-05-24T15:33:26.673Z,102976.22
2023-05-24T15:35:54.971Z,102973.88
2023-05-24T15:38:23.477Z,102983.03
2023-05-24T15:40:52.410Z,102978.38
2023-05-24T15:43:20.971Z,102978.09
2023-05-24T15:45:50.574Z,102977.59
2023-05-24T15:48:18.688Z,102973.09
2023-05-24T15:53:19.766Z,102980.34
2023-05-24T15:55:49.221Z,102986.88
2023-05-24T15:58:17.397Z,102988.91
2023-05-24T16:00:45.574Z,102969.38
2023-05-24T16:03:16.051Z,102975.75
2023-05-24T16:05:44.437Z,102984.47
2023-05-24T16:08:13.364Z,102984.78
2023-05-24T16:10:41.704Z,102983.63
2023-05-24T16:13:10.191Z,102988.47
2023-05-24T16:15:41.009Z,102981.97
2023-05-24T16:18:09.638Z,102987.31
2023-05-24T16:20:39.290Z,102983.63
2023-05-24T16:23:07.424Z,102984.66
2023-05-24T16:25:35.562Z,102988.84
2023-05-24T16:28:03.843Z,102984.16
2023-05-24T16:30:32.683Z,102992.19
2023-05-24T16:33:00.911Z,102984.50
2023-05-24T16:35:29.081Z,102981.00
2023-05-24T16:37:58.832Z,102983.50
2023-05-24T16:40:28.499Z,102981.81
2023-05-24T16:42:56.804Z,102977.66
2023-05-24T16:45:24.952Z,102978.31
2023-05-24T16:47:53.217Z,102982.50
2023-05-24T16:50:21.491Z,102975.28
2023-05-24T16:52:50.104Z,102975.44
2023-05-24T16:55:20.195Z,102986.13
2023-05-24T16:57:48.324Z,102982.44
2023-05-24T17:00:17.218Z,102975.13
2023-05-24T17:02:45.376Z,102981.78
2023-05-24T17:05:13.748Z,102979.94
2023-05-24T17:07:42.817Z,102980.28
2023-05-24T17:10:11.155Z,102978.47
2023-05-24T17:12:40.700Z,102984.63
2023-05-24T17:15:09.772Z,102985.78
2023-05-24T17:17:38.047Z,102989.81
2023-05-24T17:20:07.124Z,102980.78
2023-05-24T17:22:35.286Z,102977.59
2023-05-24T17:25:04.356Z,102986.44
2023-05-24T17:27:32.685Z,102990.59
2023-05-24T17:30:02.318Z,102985.25
2023-05-24T17:32:30.473Z,102982.44
2023-05-24T17:34:58.707Z,102974.75
2023-05-24T17:37:26.844Z,102978.78
2023-05-24T17:39:54.997Z,102981.75
2023-05-24T17:42:24.968Z,102977.09
2023-05-24T17:44:53.239Z,102975.75
2023-05-24T17:47:22.888Z,102982.25
2023-05-24T17:49:51.149Z,102979.91
2023-05-24T17:52:20.127Z,102976.59
2023-05-24T17:54:49.443Z,102982.44
2023-05-24T17:57:17.673Z,102984.75
2023-05-24T17:59:45.826Z,102978.41
2023-05-24T18:02:14.019Z,102978.59
2023-05-24T18:04:43.599Z,102989.09
2023-05-24T18:07:11.791Z,102989.44
2023-05-24T18:09:39.902Z,102988.09
2023-05-24T18:12:08.872Z,102988.06
2023-05-24T18:14:37.118Z,102985.38
2023-05-24T18:17:05.820Z,102980.03
2023-05-24T18:19:34.395Z,102984.19
2023-05-24T18:22:04.236Z,102989.66
2023-05-24T18:24:32.441Z,102989.84
2023-05-24T18:27:02.300Z,102988.31
2023-05-24T18:29:30.467Z,102993.00
2023-05-24T18:31:58.676Z,102989.28
2023-05-24T18:34:26.968Z,102993.28
2023-05-24T18:36:55.692Z,102993.56
2023-05-24T18:39:25.234Z,102990.53
2023-05-24T18:41:53.451Z,102994.22
2023-05-24T18:44:21.863Z,102994.03
2023-05-24T18:46:50.318Z,102988.88
2023-05-24T18:49:19.431Z,102999.84
2023-05-24T18:51:47.693Z,102991.50
2023-05-24T18:54:16.158Z,102991.50
2023-05-24T18:56:45.787Z,103001.00
2023-05-24T18:59:14.263Z,102996.66
2023-05-24T19:01:42.596Z,102995.66
2023-05-24T19:04:10.766Z,103002.69
2023-05-24T19:06:39.310Z,102995.66
2023-05-24T19:09:07.512Z,103002.16
2023-05-24T19:11:35.655Z,102999.81
2023-05-24T19:14:05.333Z,102996.59
2023-05-24T19:16:33.572Z,103001.09
2023-05-24T19:19:01.751Z,103009.81
2023-05-24T19:21:29.929Z,102999.81
2023-05-24T19:23:58.189Z,103007.81
2023-05-24T19:26:26.566Z,103000.44
2023-05-24T19:28:54.819Z,103005.06
2023-05-24T19:31:25.708Z,103013.25
2023-05-24T19:34:00.430Z,103008.38
2023-05-24T19:36:31.179Z,103003.88
2023-05-24T19:38:59.528Z,103008.22
2023-05-24T19:41:27.872Z,103003.06
2023-05-24T19:43:58.635Z,103010.06
2023-05-24T19:46:28.567Z,103005.56
2023-05-24T19:48:56.798Z,103000.91
2023-05-24T19:51:24.963Z,103003.28
2023-05-24T19:53:53.252Z,103015.34
2023-05-24T19:56:21.958Z,103020.72
2023-05-24T19:58:50.329Z,103020.81
2023-05-24T20:01:18.654Z,103014.19
2023-05-24T20:03:49.508Z,102992.59
2023-05-24T20:06:18.191Z,102966.78
2023-05-24T20:08:47.143Z,102954.88
2023-05-24T20:11:15.301Z,102944.28
2023-05-24T20:13:43.533Z,102927.22
2023-05-24T20:16:11.918Z,102922.66
2023-05-24T20:18:40.188Z,102917.66
2023-05-24T20:21:09.792Z,102908.56
2023-05-24T20:23:38.124Z,63550.25
2023-05-24T20:26:06.502Z,63550.25
2023-05-24T20:28:34.812Z,63550.25
2023-05-24T20:31:02.959Z,63550.25
2023-05-24T20:33:31.132Z,63550.25
2023-05-24T20:35:59.810Z,63550.25
2023-05-24T20:38:29.464Z,63550.25
2023-05-24T20:40:57.721Z,63550.25
2023-05-24T20:43:25.916Z,63550.25
2023-05-24T20:45:54.244Z,63550.25
2023-05-24T20:48:23.384Z,63550.25
2023-05-24T20:50:51.528Z,63550.25
2023-05-24T20:53:20.157Z,63550.25
2023-05-24T20:55:49.903Z,63550.25
2023-05-24T20:58:18.653Z,63550.25
2023-05-24T21:00:46.920Z,63550.25
2023-05-24T21:03:15.396Z,63550.25
2023-05-24T21:05:44.140Z,63550.25
2023-05-24T21:08:12.583Z,63550.25
2023-05-24T21:10:40.780Z,63550.25
2023-05-24T21:13:10.357Z,63550.25
2023-05-24T21:15:38.505Z,63550.25
2023-05-24T21:18:06.850Z,63550.25
2023-05-24T21:20:35.166Z,63550.25
2023-05-24T21:23:03.505Z,63550.25
2023-05-24T21:25:31.744Z,63550.25
2023-05-24T21:27:59.925Z,63550.25
2023-05-24T21:30:30.991Z,63550.25
2023-05-24T21:32:59.346Z,63550.25
2023-05-24T21:35:27.996Z,63550.25
2023-05-24T21:37:57.252Z,63550.25
2023-05-24T21:40:25.470Z,63550.25
2023-05-24T21:42:53.698Z,63550.25
2023-05-24T21:45:21.879Z,63550.25
2023-05-24T21:47:51.449Z,63550.25
2023-05-24T21:50:19.756Z,63550.25
2023-05-24T21:52:48.026Z,63550.25
2023-05-24T21:55:16.360Z,63550.25
2023-05-24T21:57:44.491Z,63550.25
2023-05-24T22:00:14.112Z,63550.25
2023-05-24T22:02:42.681Z,63550.25
2023-05-24T22:05:12.549Z,63550.25
2023-05-24T22:07:40.901Z,63550.25
2023-05-24T22:10:10.503Z,63550.25
2023-05-24T22:12:38.899Z,63550.25
2023-05-24T22:15:08.178Z,63550.25
2023-05-24T22:17:37.213Z,63550.25
2023-05-24T22:20:06.708Z,63550.25
2023-05-24T22:22:38.274Z,63550.25
2023-05-24T22:25:06.545Z,63550.25
2023-05-24T22:27:35.999Z,63550.25
2023-05-24T22:30:04.345Z,63550.25
2023-05-24T22:32:32.667Z,63550.25
2023-05-24T22:35:00.889Z,63550.25
2023-05-24T22:37:29.037Z,63550.25
2023-05-24T22:39:58.652Z,63550.25
2023-05-24T22:42:26.839Z,63550.25
2023-05-24T22:44:54.958Z,63550.25
2023-05-24T22:47:24.128Z,63550.25
2023-05-24T22:49:54.148Z,63550.25
2023-05-24T22:52:24.608Z,63550.25
2023-05-24T22:54:52.785Z,63550.25
2023-05-24T22:57:22.995Z,63550.25
2023-05-24T22:59:51.342Z,63550.25
2023-05-24T23:02:19.573Z,63550.25
2023-05-24T23:04:48.495Z,63550.25
2023-05-24T23:07:17.199Z,63550.25
2023-05-24T23:11:17.344Z,102937.03
2023-05-24T23:13:45.955Z,102941.56
2023-05-24T23:16:18.002Z,102940.59
2023-05-24T23:18:46.225Z,102948.28
2023-05-24T23:21:16.836Z,102954.84
2023-05-24T23:23:46.333Z,102956.75
2023-05-24T23:26:16.012Z,102951.38
2023-05-24T23:28:45.231Z,102954.69
2023-05-24T23:31:13.516Z,102949.09
2023-05-24T23:33:41.668Z,102963.06
2023-05-24T23:36:10.670Z,102951.03
2023-05-24T23:38:57.053Z,102953.88
2023-05-24T23:41:27.373Z,102963.38
2023-05-24T23:43:55.550Z,102961.69
2023-05-24T23:46:23.730Z,102971.75
2023-05-24T23:48:51.890Z,102961.13
2023-05-24T23:51:20.446Z,102970.50
2023-05-24T23:53:48.626Z,102973.69
2023-05-24T23:56:16.815Z,102969.53
2023-05-24T23:58:46.923Z,102970.91
